createdAt,value
2019-04-11T00:01:45.118Z,9.80
2019-04-11T00:04:08.270Z,14.95
2019-04-11T00:06:37.173Z,12.23
2019-04-11T00:09:10.224Z,12.28
2019-04-11T00:11:39.253Z,8.38
2019-04-11T00:14:08.143Z,10.10
2019-04-11T00:16:37.336Z,10.68
2019-04-11T00:19:07.301Z,10.05
2019-04-11T00:21:37.840Z,11.38
2019-04-11T00:24:07.174Z,8.85
2019-04-11T00:26:36.211Z,7.67
2019-04-11T00:29:05.921Z,13.35
2019-04-11T00:31:34.976Z,12.75
2019-04-11T00:34:04.716Z,8.95
2019-04-11T00:36:34.624Z,12.20
2019-04-11T00:39:07.671Z,11.45
2019-04-11T00:41:37.667Z,14.87
2019-04-11T00:44:06.619Z,11.65
2019-04-11T00:46:36.262Z,11.68
2019-04-11T00:49:06.219Z,10.28
2019-04-11T00:51:36.156Z,11.90
2019-04-11T00:54:06.629Z,11.68
2019-04-11T00:56:36.622Z,12.23
2019-04-11T00:59:05.937Z,13.25
2019-04-11T01:01:35.671Z,9.63
2019-04-11T01:04:04.812Z,10.55
2019-04-11T01:06:34.360Z,14.65
2019-04-11T01:09:06.197Z,12.05
2019-04-11T01:11:36.396Z,10.93
2019-04-11T01:14:06.312Z,11.55
2019-04-11T01:16:46.109Z,15.08
2019-04-11T01:19:16.342Z,14.35
2019-04-11T01:21:45.807Z,11.00
2019-04-11T01:24:15.651Z,10.80
2019-04-11T01:26:45.521Z,6.45
2019-04-11T01:29:15.467Z,10.55
2019-04-11T01:31:46.247Z,12.55
2019-04-11T01:34:16.117Z,6.30
2019-04-11T01:36:45.304Z,10.93
2019-04-11T01:39:18.996Z,12.50
2019-04-11T01:41:48.861Z,7.70
2019-04-11T01:44:18.677Z,11.95
2019-04-11T01:46:48.604Z,11.00
2019-04-11T01:49:24.505Z,10.25
2019-04-11T01:51:53.949Z,14.43
2019-04-11T01:54:23.742Z,6.85
2019-04-11T01:56:53.686Z,8.33
2019-04-11T01:59:23.633Z,11.80
2019-04-11T02:01:57.003Z,8.35
2019-04-11T02:04:27.906Z,9.20
2019-04-11T02:06:58.435Z,10.28
2019-04-11T02:09:28.589Z,9.75
2019-04-11T02:11:58.207Z,7.83
2019-04-11T02:14:28.012Z,7.33
2019-04-11T02:16:59.319Z,10.82
2019-04-11T02:19:28.717Z,5.33
2019-04-11T02:22:00.054Z,7.08
2019-04-11T02:24:34.152Z,9.65
2019-04-11T02:27:21.025Z,6.08
2019-04-11T02:29:51.023Z,6.10
2019-04-11T02:32:22.904Z,7.80
2019-04-11T02:34:54.654Z,9.15
2019-04-11T02:37:26.303Z,8.60
2019-04-11T02:39:56.358Z,7.03
2019-04-11T02:42:27.592Z,7.97
2019-04-11T02:45:13.761Z,6.72
2019-04-11T02:47:32.448Z,5.25
2019-04-11T02:49:59.263Z,7.42
2019-04-11T02:52:28.883Z,5.28
2019-04-11T02:54:58.683Z,3.60
2019-04-11T02:57:27.980Z,7.80
2019-04-11T02:59:57.152Z,5.83
2019-04-11T03:02:26.829Z,5.78
2019-04-11T03:04:56.537Z,4.83
2019-04-11T03:07:26.571Z,4.92
2019-04-11T03:09:56.452Z,3.85
2019-04-11T03:12:27.404Z,5.65
2019-04-11T03:15:22.971Z,10.00
2019-04-11T03:17:34.104Z,6.45
2019-04-11T03:20:10.376Z,12.75
2019-04-11T03:22:29.859Z,5.60
2019-04-11T03:25:00.340Z,9.33
2019-04-11T03:27:30.521Z,7.12
2019-04-11T03:30:00.698Z,6.08
2019-04-11T03:33:17.832Z,6.05
2019-04-11T03:37:58.630Z,7.12
2019-04-11T03:40:24.140Z,8.15
2019-04-11T03:42:46.349Z,8.33
2019-04-11T03:45:25.868Z,6.03
2019-04-11T03:47:51.829Z,5.22
2019-04-11T03:50:12.748Z,5.75
2019-04-11T03:52:38.732Z,5.60
2019-04-11T03:55:08.651Z,8.83
2019-04-11T03:57:39.381Z,7.62
2019-04-11T04:00:10.239Z,7.90
2019-04-11T04:02:41.150Z,7.17
2019-04-11T04:05:11.032Z,8.88
2019-04-11T04:07:40.399Z,5.45
2019-04-11T04:10:13.130Z,5.80
2019-04-11T04:12:40.962Z,5.92
2019-04-11T04:15:50.854Z,7.42
2019-04-11T04:20:42.128Z,5.70
2019-04-11T04:23:14.146Z,7.37
2019-04-11T04:25:46.820Z,5.53
2019-04-11T04:28:15.616Z,4.78
2019-04-11T04:30:46.802Z,6.55
2019-04-11T04:33:16.873Z,7.25
2019-04-11T04:35:47.520Z,6.45
2019-04-11T04:38:16.962Z,7.35
2019-04-11T04:41:00.763Z,5.72
2019-04-11T04:43:18.745Z,6.28
2019-04-11T04:46:04.925Z,6.33
2019-04-11T04:48:22.368Z,8.68
2019-04-11T04:50:52.262Z,8.28
2019-04-11T04:53:20.408Z,6.47
2019-04-11T04:55:52.187Z,6.10
2019-04-11T04:58:22.423Z,7.70
2019-04-11T05:00:53.825Z,6.67
2019-04-11T05:03:22.893Z,4.47
2019-04-11T05:05:53.034Z,9.93
2019-04-11T05:08:22.939Z,10.18
2019-04-11T05:10:53.471Z,10.05
2019-04-11T05:13:23.902Z,6.80
2019-04-11T05:16:07.184Z,6.85
2019-04-11T05:18:25.858Z,6.80
2019-04-11T05:20:55.318Z,4.05
2019-04-11T05:23:25.438Z,7.40
2019-04-11T05:25:55.053Z,9.20
2019-04-11T05:28:25.409Z,8.58
2019-04-11T05:30:55.319Z,12.82
2019-04-11T05:33:25.335Z,10.78
2019-04-11T05:35:54.652Z,10.32
2019-04-11T05:38:25.126Z,12.00
2019-04-11T05:40:54.617Z,6.17
2019-04-11T05:43:27.944Z,5.80
2019-04-11T05:45:56.335Z,5.70
2019-04-11T05:48:36.826Z,12.30
2019-04-11T05:51:06.824Z,6.47
2019-04-11T05:53:36.983Z,7.00
2019-04-11T05:56:09.053Z,5.58
2019-04-11T05:58:43.630Z,5.05
2019-04-11T06:01:14.188Z,11.00
2019-04-11T06:03:45.341Z,15.88
2019-04-11T06:06:20.466Z,13.62
2019-04-11T06:08:54.209Z,12.00
2019-04-11T06:11:26.972Z,10.00
2019-04-11T06:14:03.828Z,9.10
2019-04-11T06:16:39.546Z,10.72
2019-04-11T06:19:04.025Z,12.93
2019-04-11T06:21:35.958Z,12.75
2019-04-11T06:24:14.209Z,15.15
2019-04-11T06:27:01.439Z,12.78
2019-04-11T06:29:50.713Z,12.75
2019-04-11T06:32:40.289Z,12.15
2019-04-11T06:35:24.091Z,11.88
2019-04-11T06:38:11.654Z,12.82
2019-04-11T06:40:57.792Z,12.15
2019-04-11T06:43:28.814Z,15.05
2019-04-11T06:45:59.336Z,10.95
2019-04-11T06:48:32.220Z,10.30
2019-04-11T06:51:11.859Z,13.13
2019-04-11T06:53:42.342Z,10.28
2019-04-11T06:56:21.577Z,8.28
2019-04-11T06:58:53.604Z,8.68
2019-04-11T07:01:27.991Z,9.05
2019-04-11T07:04:05.020Z,9.55
2019-04-11T07:06:35.818Z,13.35
2019-04-11T07:09:24.474Z,11.20
2019-04-11T07:11:54.943Z,12.15
2019-04-11T07:14:41.568Z,11.45
2019-04-11T07:17:29.675Z,18.25
2019-04-11T07:20:16.736Z,12.65
2019-04-11T07:23:03.764Z,14.23
2019-04-11T07:25:53.808Z,11.73
2019-04-11T07:28:27.771Z,14.78
2019-04-11T07:31:14.631Z,13.88
2019-04-11T07:33:59.137Z,13.10
2019-04-11T07:36:46.236Z,7.60
2019-04-11T07:39:20.219Z,18.00
2019-04-11T07:41:52.083Z,20.62
2019-04-11T07:44:32.222Z,13.43
2019-04-11T07:47:17.210Z,17.52
2019-04-11T07:49:44.941Z,13.53
2019-04-11T07:52:15.716Z,14.78
2019-04-11T07:54:45.632Z,16.75
2019-04-11T07:57:17.166Z,14.45
2019-04-11T07:59:53.503Z,13.98
2019-04-11T08:02:31.149Z,13.10
2019-04-11T08:05:19.219Z,15.95
2019-04-11T08:07:51.358Z,18.67
2019-04-11T08:10:22.823Z,20.95
2019-04-11T08:12:52.712Z,14.40
2019-04-11T08:15:40.010Z,15.58
2019-04-11T08:18:14.625Z,13.50
2019-04-11T08:20:48.321Z,14.03
2019-04-11T08:23:19.403Z,15.68
2019-04-11T08:26:06.691Z,12.98
2019-04-11T08:28:37.255Z,16.87
2019-04-11T08:31:11.384Z,12.47
2019-04-11T08:33:40.502Z,12.45
2019-04-11T08:36:11.484Z,17.27
2019-04-11T08:38:40.600Z,13.25
2019-04-11T08:41:23.239Z,17.85
2019-04-11T08:43:53.220Z,15.35
2019-04-11T08:46:26.838Z,16.75
2019-04-11T08:49:03.697Z,20.15
2019-04-11T08:51:34.006Z,15.90
2019-04-11T08:54:17.437Z,13.98
2019-04-11T08:56:47.391Z,9.30
2019-04-11T08:59:35.918Z,11.83
2019-04-11T09:02:06.701Z,10.32
2019-04-11T09:04:38.407Z,15.23
2019-04-11T09:07:10.175Z,10.80
2019-04-11T09:09:57.691Z,11.35
2019-04-11T09:12:28.703Z,10.50
2019-04-11T09:15:16.855Z,15.28
2019-04-11T09:17:58.840Z,17.00
2019-04-11T09:22:51.978Z,19.30
2019-04-11T09:25:39.128Z,22.52
2019-04-11T09:28:09.842Z,10.45
2019-04-11T09:30:56.910Z,15.48
2019-04-11T09:33:44.943Z,22.07
2019-04-11T09:36:32.328Z,18.87
2019-04-11T09:39:15.111Z,10.60
2019-04-11T09:42:01.133Z,20.40
2019-04-11T09:44:31.604Z,24.40
2019-04-11T09:47:05.461Z,15.72
2019-04-11T09:49:39.619Z,13.25
2019-04-11T09:52:14.275Z,15.00
2019-04-11T09:54:45.110Z,19.05
2019-04-11T09:57:21.079Z,16.55
2019-04-11T10:00:07.942Z,20.23
2019-04-11T10:02:39.649Z,13.18
2019-04-11T10:05:14.143Z,16.37
2019-04-11T10:07:44.586Z,21.65
2019-04-11T10:10:24.630Z,17.70
2019-04-11T10:13:12.891Z,18.23
2019-04-11T10:15:53.592Z,14.83
2019-04-11T10:18:34.044Z,21.50
2019-04-11T10:21:01.265Z,16.93
2019-04-11T10:23:37.672Z,19.70
2019-04-11T10:26:07.596Z,16.65
2019-04-11T10:28:51.594Z,17.02
2019-04-11T10:31:22.203Z,17.52
2019-04-11T10:34:03.249Z,20.37
2019-04-11T10:36:34.918Z,19.37
2019-04-11T10:39:09.018Z,16.70
2019-04-11T10:41:40.034Z,22.48
2019-04-11T10:44:11.699Z,18.35
2019-04-11T10:46:45.771Z,19.67
2019-04-11T10:49:19.935Z,21.17
2019-04-11T10:51:53.953Z,17.57
2019-04-11T10:54:23.970Z,24.80
2019-04-11T10:56:55.762Z,21.77
2019-04-11T10:59:27.910Z,23.50
2019-04-11T11:01:58.570Z,15.53
2019-04-11T11:04:32.589Z,22.95
2019-04-11T11:07:04.360Z,18.82
2019-04-11T11:09:36.010Z,17.37
2019-04-11T11:12:23.845Z,16.97
2019-04-11T11:14:55.324Z,14.15
2019-04-11T11:18:04.862Z,13.95
2019-04-11T11:20:36.341Z,14.03
2019-04-11T11:23:10.994Z,13.22
2019-04-11T11:25:56.639Z,19.67
2019-04-11T11:28:28.256Z,16.52
2019-04-11T11:31:15.974Z,17.92
2019-04-11T11:33:46.885Z,20.88
2019-04-11T11:36:17.662Z,18.20
2019-04-11T11:38:56.759Z,14.95
2019-04-11T11:41:44.507Z,13.75
2019-04-11T11:44:14.098Z,19.62
2019-04-11T11:46:47.301Z,21.42
2019-04-11T11:49:29.601Z,19.17
2019-04-11T11:52:01.939Z,18.02
2019-04-11T11:54:33.009Z,19.05
2019-04-11T11:57:04.492Z,19.87
2019-04-11T11:59:38.549Z,20.27
2019-04-11T12:02:10.577Z,18.75
2019-04-11T12:04:54.018Z,16.70
2019-04-11T12:07:25.174Z,15.85
2019-04-11T12:10:13.836Z,18.20
2019-04-11T12:12:48.345Z,13.03
2019-04-11T12:15:35.018Z,15.45
2019-04-11T12:18:09.386Z,15.00
2019-04-11T12:20:44.840Z,9.98
2019-04-11T12:23:22.664Z,17.75
2019-04-11T12:25:51.635Z,20.40
2019-04-11T12:28:36.201Z,12.10
2019-04-11T12:31:07.088Z,10.95
2019-04-11T12:33:54.082Z,12.90
2019-04-11T12:36:26.453Z,14.63
2019-04-11T12:39:07.644Z,16.17
2019-04-11T12:41:47.077Z,13.13
2019-04-11T12:44:20.372Z,17.05
2019-04-11T12:47:07.835Z,15.30
2019-04-11T12:49:53.006Z,9.25
2019-04-11T12:52:32.284Z,15.03
2019-04-11T12:55:02.733Z,16.35
2019-04-11T12:57:49.514Z,13.45
2019-04-11T13:00:20.258Z,16.12
2019-04-11T13:03:08.785Z,15.70
2019-04-11T13:05:44.260Z,17.23
2019-04-11T13:08:23.256Z,18.55
2019-04-11T13:10:52.159Z,10.13
2019-04-11T13:13:25.340Z,11.35
2019-04-11T13:15:55.879Z,18.60
2019-04-11T13:18:44.776Z,14.33
2019-04-11T13:21:21.187Z,12.40
2019-04-11T13:23:57.553Z,16.45
2019-04-11T13:26:40.232Z,14.07
2019-04-11T13:29:26.895Z,16.35
2019-04-11T13:32:13.757Z,18.25
2019-04-11T13:34:44.224Z,15.30
2019-04-11T13:37:26.994Z,13.85
2019-04-11T13:40:00.300Z,13.55
2019-04-11T13:42:47.205Z,11.33
2019-04-11T13:45:16.130Z,11.88
2019-04-11T13:47:46.585Z,15.75
2019-04-11T13:50:17.380Z,16.25
2019-04-11T13:53:04.142Z,15.40
2019-04-11T13:55:33.050Z,12.82
2019-04-11T13:58:19.805Z,17.27
2019-04-11T14:00:48.781Z,14.38
2019-04-11T14:03:35.408Z,15.15
2019-04-11T14:06:14.798Z,17.32
2019-04-11T14:09:01.554Z,17.32
2019-04-11T14:11:33.799Z,22.90
2019-04-11T14:14:05.412Z,15.10
2019-04-11T14:16:34.373Z,18.15
2019-04-11T14:19:09.814Z,11.15
2019-04-11T14:21:38.150Z,11.83
2019-04-11T14:24:12.116Z,12.28
2019-04-11T14:26:48.726Z,14.03
2019-04-11T14:29:19.303Z,18.73
2019-04-11T14:31:50.917Z,21.42
2019-04-11T14:34:38.304Z,14.07
2019-04-11T14:37:24.067Z,13.05
2019-04-11T14:39:57.678Z,11.63
2019-04-11T14:45:09.419Z,13.78
2019-04-11T14:47:39.978Z,21.75
2019-04-11T14:50:14.401Z,13.03
2019-04-11T14:53:03.502Z,14.53
2019-04-11T14:55:36.867Z,13.28
2019-04-11T14:58:16.467Z,18.30
2019-04-11T15:00:45.464Z,10.48
2019-04-11T15:03:15.944Z,11.20
2019-04-11T15:05:55.248Z,11.63
2019-04-11T15:08:31.706Z,16.75
2019-04-11T15:11:03.857Z,18.82
2019-04-11T15:13:34.222Z,17.48
2019-04-11T15:16:22.965Z,18.02
2019-04-11T15:18:53.485Z,17.50
2019-04-11T15:21:23.962Z,16.40
2019-04-11T15:23:53.305Z,15.98
2019-04-11T15:26:36.602Z,15.65
2019-04-11T15:29:08.092Z,21.00
2019-04-11T15:31:41.292Z,12.13
2019-04-11T15:34:30.164Z,18.85
2019-04-11T15:37:06.721Z,17.87
2019-04-11T15:39:44.629Z,27.42
2019-04-11T15:44:58.839Z,23.32
2019-04-11T15:47:29.321Z,20.37
2019-04-11T15:50:06.064Z,15.75
2019-04-11T15:52:37.050Z,17.80
2019-04-11T15:55:08.662Z,13.90
2019-04-11T15:57:42.656Z,17.85
2019-04-11T16:00:21.769Z,12.95
2019-04-11T16:02:52.286Z,13.03
2019-04-11T16:05:31.549Z,15.88
2019-04-11T16:08:17.508Z,17.23
2019-04-11T16:11:02.781Z,20.37
2019-04-11T16:13:38.326Z,22.13
2019-04-11T16:16:11.921Z,20.75
2019-04-11T16:18:41.176Z,22.48
2019-04-11T16:21:28.031Z,17.20
2019-04-11T16:24:17.179Z,14.60
2019-04-11T16:26:48.408Z,11.30
2019-04-11T16:29:18.917Z,10.90
2019-04-11T16:31:48.193Z,16.50
2019-04-11T16:34:18.774Z,24.37
2019-04-11T16:36:49.223Z,14.15
2019-04-11T16:39:36.245Z,18.02
2019-04-11T16:42:07.581Z,21.27
2019-04-11T16:44:55.246Z,13.48
2019-04-11T16:50:09.576Z,13.15
2019-04-11T16:52:39.442Z,14.58
2019-04-11T16:55:11.763Z,12.90
2019-04-11T16:57:44.950Z,13.30
2019-04-11T17:00:15.295Z,15.83
2019-04-11T17:02:44.897Z,15.00
2019-04-11T17:05:14.554Z,17.35
2019-04-11T17:07:50.229Z,16.87
2019-04-11T17:10:21.529Z,13.90
2019-04-11T17:12:53.834Z,16.80
2019-04-11T17:15:24.958Z,16.80
2019-04-11T17:17:54.799Z,16.00
2019-04-11T17:20:25.032Z,14.73
2019-04-11T17:22:55.741Z,11.70
2019-04-11T17:25:27.003Z,18.30
2019-04-11T17:27:56.794Z,10.90
2019-04-11T17:30:27.639Z,14.28
2019-04-11T17:32:57.820Z,19.10
2019-04-11T17:35:31.559Z,22.52
2019-04-11T17:38:01.095Z,12.25
2019-04-11T17:40:31.836Z,14.23
2019-04-11T17:43:01.520Z,16.57
2019-04-11T17:45:37.807Z,16.85
2019-04-11T17:48:13.378Z,20.10
2019-04-11T17:50:45.807Z,18.50
2019-04-11T17:53:15.701Z,16.45
2019-04-11T17:55:46.721Z,18.52
2019-04-11T17:58:16.565Z,19.70
2019-04-11T18:00:47.813Z,16.65
2019-04-11T18:03:17.583Z,25.20
2019-04-11T18:05:47.577Z,18.25
2019-04-11T18:08:20.200Z,14.15
2019-04-11T18:10:50.452Z,16.85
2019-04-11T18:13:20.383Z,12.75
2019-04-11T18:15:52.265Z,10.15
2019-04-11T18:18:20.873Z,13.13
2019-04-11T18:20:50.500Z,24.90
2019-04-11T18:23:24.472Z,16.20
2019-04-11T18:25:54.486Z,19.82
2019-04-11T18:28:25.645Z,16.97
2019-04-11T18:30:56.991Z,19.65
2019-04-11T18:33:26.524Z,22.02
2019-04-11T18:36:01.822Z,25.43
2019-04-11T18:38:32.027Z,17.12
2019-04-11T18:41:10.591Z,22.42
2019-04-11T18:43:39.390Z,23.02
2019-04-11T18:46:12.038Z,19.52
2019-04-11T18:48:44.674Z,14.25
2019-04-11T18:51:15.566Z,14.40
2019-04-11T18:53:45.073Z,15.32
2019-04-11T18:56:14.222Z,14.73
2019-04-11T18:58:48.073Z,12.35
2019-04-11T19:01:25.144Z,22.95
2019-04-11T19:03:54.678Z,21.55
2019-04-11T19:06:27.949Z,18.67
2019-04-11T19:08:57.986Z,16.75
2019-04-11T19:11:28.012Z,11.33
2019-04-11T19:13:57.658Z,12.13
2019-04-11T19:16:26.765Z,20.00
2019-04-11T19:18:57.953Z,17.55
2019-04-11T19:21:31.335Z,16.67
2019-04-11T19:24:01.308Z,14.43
2019-04-11T19:26:32.327Z,19.42
2019-04-11T19:29:02.208Z,16.87
2019-04-11T19:31:31.975Z,25.72
2019-04-11T19:34:04.321Z,15.95
2019-04-11T19:36:33.239Z,17.80
2019-04-11T19:39:08.306Z,21.40
2019-04-11T19:41:38.390Z,19.20
2019-04-11T19:44:09.700Z,17.92
2019-04-11T19:46:40.935Z,20.02
2019-04-11T19:49:10.924Z,18.12
2019-04-11T19:51:40.483Z,17.17
2019-04-11T19:54:11.693Z,18.80
2019-04-11T19:56:52.121Z,12.53
2019-04-11T19:59:22.559Z,13.40
2019-04-11T20:01:53.969Z,11.15
2019-04-11T20:04:24.451Z,13.90
2019-04-11T20:06:58.044Z,13.65
2019-04-11T20:09:28.115Z,9.23
2019-04-11T20:11:57.921Z,17.17
2019-04-11T20:14:29.197Z,12.00
2019-04-11T20:16:59.212Z,16.23
2019-04-11T20:19:28.970Z,10.15
2019-04-11T20:22:02.704Z,12.20
2019-04-11T20:24:32.334Z,10.25
2019-04-11T20:27:01.995Z,12.82
2019-04-11T20:29:32.606Z,13.03
2019-04-11T20:32:03.016Z,5.15
2019-04-11T20:34:32.701Z,11.30
2019-04-11T20:37:03.829Z,8.48
2019-04-11T20:39:33.425Z,13.00
2019-04-11T20:42:03.107Z,14.38
2019-04-11T20:44:32.404Z,8.60
2019-04-11T20:47:03.196Z,11.40
2019-04-11T20:49:34.737Z,9.28
2019-04-11T20:52:04.644Z,14.35
2019-04-11T20:54:35.973Z,15.13
2019-04-11T20:57:05.763Z,8.50
2019-04-11T20:59:35.424Z,10.03
2019-04-11T21:02:05.288Z,12.05
2019-04-11T21:04:35.564Z,18.77
2019-04-11T21:07:05.666Z,13.00
2019-04-11T21:09:36.897Z,14.95
2019-04-11T21:12:07.496Z,15.45
2019-04-11T21:14:38.349Z,16.20
2019-04-11T21:17:07.747Z,9.63
2019-04-11T21:19:38.515Z,14.73
2019-04-11T21:22:08.200Z,20.40
2019-04-11T21:24:38.110Z,17.20
2019-04-11T21:27:07.367Z,16.75
2019-04-11T21:29:38.453Z,17.02
2019-04-11T21:32:09.267Z,12.60
2019-04-11T21:34:39.617Z,15.25
2019-04-11T21:37:09.622Z,17.73
2019-04-11T21:39:39.769Z,17.60
2019-04-11T21:42:09.557Z,16.95
2019-04-11T21:44:39.299Z,14.85
2019-04-11T21:47:09.118Z,14.80
2019-04-11T21:49:40.153Z,15.32
2019-04-11T21:52:12.326Z,11.28
2019-04-11T21:54:45.052Z,10.25
2019-04-11T21:57:13.743Z,12.50
2019-04-11T21:59:43.423Z,12.78
2019-04-11T22:02:14.710Z,9.18
2019-04-11T22:04:46.131Z,13.68
2019-04-11T22:07:15.894Z,14.18
2019-04-11T22:09:45.141Z,19.77
2019-04-11T22:12:14.681Z,16.20
2019-04-11T22:14:44.543Z,7.40
2019-04-11T22:17:15.872Z,16.05
2019-04-11T22:19:46.901Z,9.03
2019-04-11T22:22:18.745Z,14.33
2019-04-11T22:24:49.593Z,20.32
2019-04-11T22:27:22.015Z,19.10
2019-04-11T22:29:54.998Z,10.30
2019-04-11T22:32:23.762Z,11.53
2019-04-11T22:34:56.733Z,7.67
2019-04-11T22:37:27.712Z,13.00
2019-04-11T22:40:02.038Z,13.20
2019-04-11T22:42:32.456Z,18.50
2019-04-11T22:45:01.903Z,7.75
2019-04-11T22:47:31.913Z,13.93
2019-04-11T22:50:02.818Z,9.00
2019-04-11T22:52:31.878Z,8.25
2019-04-11T22:55:00.855Z,11.48
2019-04-11T22:57:29.760Z,15.63
2019-04-11T22:59:58.807Z,10.82
2019-04-11T23:02:38.152Z,10.00
2019-04-11T23:05:07.442Z,15.10
2019-04-11T23:07:36.344Z,12.55
2019-04-11T23:10:07.157Z,8.03
2019-04-11T23:12:36.185Z,8.55
2019-04-11T23:15:07.266Z,16.48
2019-04-11T23:17:37.926Z,13.22
2019-04-11T23:20:08.031Z,8.70
2019-04-11T23:22:36.937Z,11.10
2019-04-11T23:25:06.912Z,8.33
2019-04-11T23:27:35.908Z,5.33
2019-04-11T23:30:08.231Z,9.43
2019-04-11T23:32:37.077Z,8.98
2019-04-11T23:35:06.463Z,9.60
2019-04-11T23:37:36.912Z,5.97
2019-04-11T23:40:06.898Z,16.73
2019-04-11T23:42:35.858Z,14.20
2019-04-11T23:45:06.280Z,6.58
2019-04-11T23:47:35.195Z,7.65
2019-04-11T23:50:04.927Z,10.68
2019-04-11T23:52:33.809Z,10.75
2019-04-11T23:55:02.909Z,7.03
2019-04-11T23:57:31.851Z,8.70
